Shell Knob, Missouri
Current Conditions -  °F | °C
As of 2:15 PM on Thursday 23 Oct 2014 (Local Time) from KFWB Reporting Station
Broken Clouds Broken Clouds  
Wind Chill: 63°   Ceiling: 2100
Heat Index: 63°   Visibility: 10mi
Dew Point: 54°   Wind: 7mph
Humidity: 72%   Direction: 220°SW
Pressure: 30.15"   Gusts: NA
Location:  36.63°N, 93.63°W
Report Text: KFWB 231915Z AUTO 22006KT 10SM BKN021 BKN090 17/12 A3015 RMK AO2
Loading
Personal Weather Stations






























Interactive Weather Map
Tropical Storm Tracking
New forecast layout! Learn more

10-Day Weather Forecast

Advertisements
Track Severe Weather on mobile